createdAt,value
2019-02-05T00:01:22.225Z,93.10
2019-02-05T01:34:31.523Z,92.60
2019-02-05T01:37:00.221Z,92.50
2019-02-05T01:39:28.688Z,92.70
2019-02-05T01:41:57.130Z,92.40
2019-02-05T01:44:25.506Z,92.40
2019-02-05T01:46:54.008Z,92.20
2019-02-05T01:49:22.478Z,92.20
2019-02-05T01:51:53.958Z,92.10
2019-02-05T01:54:22.344Z,92.00
2019-02-05T01:57:19.099Z,91.90
2019-02-05T01:59:40.848Z,92.10
2019-02-05T02:02:09.427Z,92.30
2019-02-05T02:04:38.001Z,92.20
2019-02-05T02:07:12.381Z,92.10
2019-02-05T02:09:43.252Z,92.10
2019-02-05T02:12:13.821Z,92.00
2019-02-05T02:14:42.526Z,92.10
2019-02-05T02:17:16.785Z,92.30
2019-02-05T02:19:49.665Z,92.20
2019-02-05T02:22:18.527Z,92.50
2019-02-05T02:24:47.012Z,92.50
2019-02-05T02:27:17.603Z,92.70
2019-02-05T02:29:47.703Z,92.40
2019-02-05T02:34:46.312Z,92.80
2019-02-05T02:37:15.055Z,92.50
2019-02-05T02:39:54.131Z,92.40
2019-02-05T02:42:32.045Z,92.40
2019-02-05T02:45:00.630Z,92.40
2019-02-05T02:47:29.574Z,92.60
2019-02-05T02:49:58.346Z,92.60
2019-02-05T02:52:30.794Z,92.30
2019-02-05T02:55:05.545Z,92.20
2019-02-05T02:57:34.388Z,92.20
2019-02-05T03:00:06.131Z,92.10
2019-02-05T03:02:38.597Z,92.00
2019-02-05T03:05:12.798Z,92.00
2019-02-05T03:07:41.596Z,92.40
2019-02-05T03:10:25.833Z,92.10
2019-02-05T03:12:54.865Z,92.10
2019-02-05T03:15:28.936Z,92.10
2019-02-05T03:17:57.809Z,92.20
2019-02-05T03:20:28.872Z,92.30
2019-02-05T03:23:04.359Z,92.00
2019-02-05T03:25:32.623Z,91.80
2019-02-05T03:28:01.195Z,92.00
2019-02-05T03:30:52.009Z,92.00
2019-02-05T03:33:21.161Z,92.00
2019-02-05T03:35:52.562Z,92.00
2019-02-05T03:38:21.801Z,91.80
2019-02-05T03:41:03.255Z,91.70
2019-02-05T03:43:31.615Z,91.40
2019-02-05T03:46:00.167Z,91.40
2019-02-05T03:48:28.601Z,91.90
2019-02-05T03:51:15.878Z,91.50
2019-02-05T03:54:08.466Z,91.80
2019-02-05T03:56:52.355Z,91.90
2019-02-05T03:59:24.041Z,91.90
2019-02-05T04:02:07.253Z,91.80
2019-02-05T04:08:02.479Z,91.70
2019-02-05T04:10:39.533Z,92.00
2019-02-05T04:13:29.813Z,91.90
2019-02-05T04:16:16.461Z,91.80
2019-02-05T04:19:00.419Z,91.50
2019-02-05T04:21:46.821Z,91.50
2019-02-05T04:24:34.616Z,91.60
2019-02-05T04:27:17.878Z,91.40
2019-02-05T04:29:51.184Z,91.20
2019-02-05T04:32:28.843Z,91.40
2019-02-05T04:38:35.189Z,91.60
2019-02-05T04:41:09.792Z,91.20
2019-02-05T04:44:14.725Z,91.30
2019-02-05T04:47:04.213Z,91.30
2019-02-05T04:50:05.733Z,91.40
2019-02-05T04:52:46.193Z,91.30
2019-02-05T04:55:48.956Z,91.40
2019-02-05T04:58:35.328Z,91.40
2019-02-05T05:01:18.641Z,91.50
2019-02-05T05:04:11.367Z,91.60
2019-02-05T05:09:49.418Z,91.90
2019-02-05T05:12:17.955Z,91.60
2019-02-05T05:14:46.489Z,91.70
2019-02-05T05:17:14.900Z,91.60
2019-02-05T05:19:43.645Z,91.70
2019-02-05T05:22:12.036Z,91.80
2019-02-05T05:24:40.447Z,91.80
2019-02-05T05:27:08.967Z,91.60
2019-02-05T05:29:37.385Z,91.50
2019-02-05T05:32:06.235Z,91.70
2019-02-05T05:34:34.676Z,91.40
2019-02-05T05:37:02.251Z,91.40
2019-02-05T05:39:32.236Z,91.50
2019-02-05T05:42:00.649Z,91.80
2019-02-05T05:44:29.031Z,91.70
2019-02-05T05:46:57.434Z,91.40
2019-02-05T05:49:26.131Z,91.30
2019-02-05T05:51:54.599Z,91.50
2019-02-05T05:54:24.459Z,91.60
2019-02-05T05:56:53.009Z,91.40
2019-02-05T05:59:21.417Z,91.00
2019-02-05T06:01:49.885Z,91.20
2019-02-05T06:04:18.597Z,91.20
2019-02-05T06:06:55.137Z,90.70
2019-02-05T06:09:23.661Z,90.90
2019-02-05T06:11:54.202Z,90.60
2019-02-05T06:14:22.771Z,90.50
2019-02-05T06:16:51.260Z,90.50
2019-02-05T06:19:20.117Z,91.10
2019-02-05T06:21:53.351Z,91.50
2019-02-05T06:24:22.106Z,91.30
2019-02-05T06:27:12.215Z,91.30
2019-02-05T06:32:31.962Z,91.40
2019-02-05T06:35:00.521Z,91.20
2019-02-05T06:37:29.064Z,91.30
2019-02-05T06:39:57.847Z,91.50
2019-02-05T06:42:26.695Z,91.70
2019-02-05T06:44:55.169Z,91.20
2019-02-05T06:47:23.582Z,91.10
2019-02-05T06:49:52.041Z,91.30
2019-02-05T06:52:20.488Z,91.10
2019-02-05T06:54:48.926Z,91.10
2019-02-05T06:57:17.320Z,91.10
2019-02-05T06:59:46.096Z,91.30
2019-02-05T07:02:14.469Z,91.00
2019-02-05T07:04:42.951Z,90.70
2019-02-05T07:07:11.430Z,90.80
2019-02-05T07:09:39.834Z,90.70
2019-02-05T07:12:08.456Z,90.80
2019-02-05T07:14:36.846Z,90.50
2019-02-05T07:17:05.821Z,90.80
2019-02-05T07:19:34.345Z,90.80
2019-02-05T07:22:02.738Z,90.90
2019-02-05T07:24:31.190Z,91.00
2019-02-05T07:26:59.636Z,90.70
2019-02-05T07:29:28.128Z,90.60
2019-02-05T07:31:56.650Z,91.00
2019-02-05T07:34:25.583Z,91.00
2019-02-05T07:36:54.179Z,90.90
2019-02-05T07:39:22.736Z,91.10
2019-02-05T07:41:51.399Z,90.90
2019-02-05T07:44:19.826Z,90.90
2019-02-05T07:46:49.902Z,91.20
2019-02-05T07:49:18.380Z,91.10
2019-02-05T07:51:46.909Z,91.30
2019-02-05T07:54:16.323Z,90.90
2019-02-05T07:56:44.768Z,91.10
2019-02-05T07:59:13.344Z,91.20
2019-02-05T08:01:41.838Z,90.90
2019-02-05T08:04:10.480Z,91.10
2019-02-05T08:06:42.134Z,91.00
2019-02-05T08:09:10.792Z,91.00
2019-02-05T08:11:41.325Z,90.80
2019-02-05T08:14:09.998Z,90.60
2019-02-05T08:16:38.588Z,90.80
2019-02-05T08:19:07.012Z,90.70
2019-02-05T08:21:35.475Z,90.80
2019-02-05T08:24:04.301Z,90.70
2019-02-05T08:26:32.764Z,90.70
2019-02-05T08:29:01.184Z,90.60
2019-02-05T08:31:29.899Z,90.80
2019-02-05T08:33:58.423Z,90.60
2019-02-05T08:36:26.828Z,90.90
2019-02-05T08:38:55.577Z,90.70
2019-02-05T08:41:24.059Z,91.10
2019-02-05T08:43:52.561Z,90.90
2019-02-05T08:46:20.978Z,90.90
2019-02-05T08:48:49.896Z,91.10
2019-02-05T08:51:18.373Z,91.00
2019-02-05T08:53:46.862Z,90.70
2019-02-05T08:56:15.375Z,90.80
2019-02-05T08:58:43.730Z,90.60
2019-02-05T09:01:14.354Z,90.40
2019-02-05T09:03:42.392Z,90.30
2019-02-05T09:06:10.863Z,90.70
2019-02-05T09:08:39.436Z,90.80
2019-02-05T09:11:07.848Z,90.60
2019-02-05T09:13:36.342Z,90.70
2019-02-05T09:16:04.797Z,90.70
2019-02-05T09:18:33.312Z,90.40
2019-02-05T09:21:01.930Z,90.90
2019-02-05T09:23:30.420Z,90.60
2019-02-05T09:25:59.353Z,90.50
2019-02-05T09:28:27.803Z,90.80
2019-02-05T09:30:57.641Z,91.00
2019-02-05T09:33:26.118Z,90.80
2019-02-05T09:35:54.556Z,90.80
2019-02-05T09:38:22.947Z,91.10
2019-02-05T09:40:51.418Z,90.90
2019-02-05T09:43:19.890Z,90.90
2019-02-05T09:45:48.278Z,90.80
2019-02-05T09:48:16.751Z,90.60
2019-02-05T09:50:45.309Z,90.10
2019-02-05T09:53:13.808Z,90.40
2019-02-05T09:55:42.350Z,90.30
2019-02-05T09:58:10.764Z,90.60
2019-02-05T10:00:40.637Z,91.10
2019-02-05T10:03:09.274Z,90.90
2019-02-05T10:05:37.781Z,90.60
2019-02-05T10:08:06.504Z,90.80
2019-02-05T10:10:35.068Z,91.10
2019-02-05T10:13:03.797Z,90.90
2019-02-05T10:15:36.786Z,91.10
2019-02-05T10:18:06.729Z,90.80
2019-02-05T10:20:35.157Z,90.70
2019-02-05T10:23:03.979Z,90.80
2019-02-05T10:25:32.491Z,90.90
2019-02-05T10:28:00.938Z,90.90
2019-02-05T10:30:37.525Z,90.90
2019-02-05T10:33:06.966Z,90.50
2019-02-05T10:35:35.375Z,90.40
2019-02-05T10:38:04.123Z,90.30
2019-02-05T10:40:32.540Z,90.60
2019-02-05T10:43:00.975Z,90.80
2019-02-05T10:45:29.580Z,90.80
2019-02-05T10:47:58.133Z,90.70
2019-02-05T10:50:37.533Z,90.80
2019-02-05T10:53:05.980Z,90.90
2019-02-05T10:55:34.477Z,90.70
2019-02-05T10:58:02.947Z,90.80
2019-02-05T11:00:34.388Z,90.90
2019-02-05T11:03:05.925Z,90.90
2019-02-05T11:05:34.405Z,90.20
2019-02-05T11:08:02.888Z,90.40
2019-02-05T11:10:31.432Z,90.40
2019-02-05T11:12:59.943Z,90.90
2019-02-05T11:15:30.085Z,90.50
2019-02-05T11:17:58.589Z,90.20
2019-02-05T11:20:28.430Z,90.10
2019-02-05T11:22:56.981Z,90.30
2019-02-05T11:25:25.401Z,89.60
2019-02-05T11:27:53.898Z,90.20
2019-02-05T11:30:28.289Z,90.00
2019-02-05T11:32:56.756Z,90.30
2019-02-05T11:35:25.227Z,90.20
2019-02-05T11:37:53.919Z,90.30
2019-02-05T11:40:24.780Z,90.60
2019-02-05T11:42:53.208Z,90.90
2019-02-05T11:45:21.635Z,90.70
2019-02-05T11:47:50.215Z,90.40
2019-02-05T11:50:18.726Z,90.60
2019-02-05T11:52:47.252Z,90.40
2019-02-05T11:55:18.453Z,90.50
2019-02-05T11:57:47.035Z,90.70
2019-02-05T12:00:19.023Z,90.60
2019-02-05T12:02:49.144Z,90.40
2019-02-05T12:05:17.766Z,89.80
2019-02-05T12:07:46.185Z,90.10
2019-02-05T12:10:15.785Z,90.30
2019-02-05T12:12:44.389Z,90.60
2019-02-05T12:15:16.979Z,90.30
2019-02-05T12:17:45.475Z,90.50
2019-02-05T12:20:19.003Z,90.70
2019-02-05T12:22:48.450Z,90.50
2019-02-05T12:25:21.803Z,90.80
2019-02-05T12:27:50.264Z,90.50
2019-02-05T12:30:24.170Z,90.40
2019-02-05T12:32:52.556Z,90.30
2019-02-05T12:35:20.976Z,90.20
2019-02-05T12:37:49.406Z,90.20
2019-02-05T12:40:20.594Z,90.30
2019-02-05T12:42:49.041Z,89.70
2019-02-05T12:45:31.646Z,90.10
2019-02-05T12:48:00.096Z,90.70
2019-02-05T12:50:30.617Z,90.30
2019-02-05T12:52:59.021Z,90.50
2019-02-05T12:55:27.591Z,90.10
2019-02-05T12:57:56.565Z,90.20
2019-02-05T13:00:31.171Z,90.50
2019-02-05T13:02:59.663Z,90.20
2019-02-05T13:05:28.125Z,90.20
2019-02-05T13:07:56.623Z,90.10
2019-02-05T13:10:30.587Z,90.50
2019-02-05T13:12:59.065Z,90.00
2019-02-05T13:15:27.578Z,89.70
2019-02-05T13:17:56.029Z,89.90
2019-02-05T13:20:26.759Z,89.50
2019-02-05T13:22:55.701Z,89.90
2019-02-05T13:25:25.849Z,89.00
2019-02-05T13:27:54.232Z,89.60
2019-02-05T13:30:25.313Z,89.10
2019-02-05T13:32:53.719Z,89.80
2019-02-05T13:35:22.131Z,89.60
2019-02-05T13:37:50.929Z,89.80
2019-02-05T13:40:24.994Z,89.60
2019-02-05T13:42:53.428Z,90.00
2019-02-05T13:45:24.657Z,90.10
2019-02-05T13:47:53.111Z,90.10
2019-02-05T13:50:32.597Z,90.00
2019-02-05T13:52:54.331Z,89.40
2019-02-05T13:55:27.523Z,89.30
2019-02-05T13:57:56.011Z,89.50
2019-02-05T14:00:31.991Z,88.70
2019-02-05T14:03:00.469Z,89.30
2019-02-05T14:05:29.175Z,88.70
2019-02-05T14:07:57.640Z,89.30
2019-02-05T14:10:35.163Z,89.30
2019-02-05T14:13:03.683Z,88.40
2019-02-05T14:15:36.729Z,88.90
2019-02-05T14:18:06.263Z,88.30
2019-02-05T14:20:34.715Z,87.70
2019-02-05T14:23:03.139Z,89.00
2019-02-05T14:25:31.643Z,89.30
2019-02-05T14:28:00.235Z,87.70
2019-02-05T14:30:39.319Z,87.60
2019-02-05T14:33:07.838Z,87.00
2019-02-05T14:35:36.245Z,87.00
2019-02-05T14:38:05.678Z,87.00
2019-02-05T14:40:34.119Z,86.20
2019-02-05T14:43:02.511Z,86.70
2019-02-05T14:45:30.903Z,86.00
2019-02-05T14:47:59.663Z,85.70
2019-02-05T14:50:37.111Z,86.20
2019-02-05T14:53:06.517Z,86.20
2019-02-05T14:55:34.943Z,85.00
2019-02-05T14:58:03.507Z,85.50
2019-02-05T15:00:33.722Z,86.80
2019-02-05T15:03:03.637Z,86.50
2019-02-05T15:05:32.099Z,86.20
2019-02-05T15:08:00.600Z,86.80
2019-02-05T15:10:29.119Z,87.50
2019-02-05T15:12:57.510Z,87.80
2019-02-05T15:15:27.933Z,88.30
2019-02-05T15:17:56.459Z,88.90
2019-02-05T15:20:30.953Z,89.00
2019-02-05T15:22:59.343Z,88.60
2019-02-05T15:25:27.770Z,87.80
2019-02-05T15:27:56.530Z,87.30
2019-02-05T15:30:30.944Z,87.20
2019-02-05T15:33:19.211Z,87.20
2019-02-05T15:35:52.180Z,86.80
2019-02-05T15:38:20.734Z,87.60
2019-02-05T15:40:49.576Z,87.50
2019-02-05T15:43:18.098Z,87.90
2019-02-05T15:45:46.577Z,87.90
2019-02-05T15:48:15.090Z,87.80
2019-02-05T15:50:43.535Z,87.50
2019-02-05T15:53:11.958Z,87.60
2019-02-05T15:55:40.926Z,88.00
2019-02-05T15:58:09.409Z,87.70
2019-02-05T16:00:37.962Z,87.80
2019-02-05T16:03:08.240Z,86.80
2019-02-05T16:05:36.628Z,85.80
2019-02-05T16:08:05.146Z,86.50
2019-02-05T16:10:33.615Z,86.10
2019-02-05T16:13:02.986Z,85.40
2019-02-05T16:15:31.958Z,85.20
2019-02-05T16:18:00.517Z,84.90
2019-02-05T16:20:30.964Z,85.00
2019-02-05T16:22:59.578Z,85.50
2019-02-05T16:25:28.204Z,85.90
2019-02-05T16:27:57.246Z,86.50
2019-02-05T16:30:32.736Z,85.70
2019-02-05T16:33:01.500Z,85.90
2019-02-05T16:35:36.531Z,86.60
2019-02-05T16:38:04.927Z,87.20
2019-02-05T16:40:40.974Z,86.30
2019-02-05T16:43:28.895Z,85.90
2019-02-05T16:45:59.114Z,86.80
2019-02-05T16:48:27.813Z,86.50
2019-02-05T16:51:03.467Z,86.70
2019-02-05T16:53:31.850Z,86.80
2019-02-05T16:56:01.759Z,86.50
2019-02-05T16:58:39.350Z,86.10
2019-02-05T17:01:07.994Z,85.80
2019-02-05T17:03:38.856Z,86.30
2019-02-05T17:06:08.441Z,86.90
2019-02-05T17:08:37.112Z,86.50
2019-02-05T17:11:05.576Z,87.00
2019-02-05T17:13:34.123Z,87.00
2019-02-05T17:16:02.806Z,87.10
2019-02-05T17:18:31.709Z,86.00
2019-02-05T17:21:00.375Z,86.90
2019-02-05T17:23:28.907Z,86.80
2019-02-05T17:25:57.436Z,86.90
2019-02-05T17:28:25.852Z,87.20
2019-02-05T17:30:54.332Z,88.30
2019-02-05T17:33:22.859Z,87.30
2019-02-05T17:35:51.422Z,86.70
2019-02-05T17:38:25.668Z,86.90
2019-02-05T17:40:54.755Z,87.10
2019-02-05T17:43:23.364Z,87.80
2019-02-05T17:45:51.925Z,87.40
2019-02-05T17:48:20.550Z,87.90
2019-02-05T17:50:49.145Z,87.80
2019-02-05T17:53:17.660Z,87.60
2019-02-05T17:55:48.776Z,87.40
2019-02-05T17:58:17.336Z,87.30
2019-02-05T18:00:47.485Z,86.50
2019-02-05T18:03:16.137Z,86.30
2019-02-05T18:05:44.563Z,86.50
2019-02-05T18:08:13.055Z,85.70
2019-02-05T18:10:42.096Z,86.20
2019-02-05T18:15:36.722Z,85.40
2019-02-05T18:18:11.438Z,85.70
2019-02-05T18:20:39.954Z,85.40
2019-02-05T18:23:08.481Z,86.10
2019-02-05T18:25:37.045Z,86.30
2019-02-05T18:28:55.823Z,85.90
2019-02-05T18:31:24.276Z,86.70
2019-02-05T18:33:53.072Z,86.60
2019-02-05T18:36:21.644Z,86.90
2019-02-05T18:38:50.333Z,86.50
2019-02-05T18:41:18.904Z,85.40
2019-02-05T18:43:47.456Z,85.20
2019-02-05T18:46:15.955Z,85.10
2019-02-05T18:48:44.458Z,85.00
2019-02-05T18:51:13.236Z,84.30
2019-02-05T18:53:41.836Z,84.80
2019-02-05T18:56:10.810Z,85.00
2019-02-05T18:58:39.446Z,84.80
2019-02-05T19:01:07.936Z,84.50
2019-02-05T19:03:36.390Z,84.40
2019-02-05T19:06:05.018Z,84.50
2019-02-05T19:08:33.462Z,84.70
2019-02-05T19:11:01.912Z,85.20
2019-02-05T19:13:30.993Z,85.90
2019-02-05T19:15:59.408Z,85.70
2019-02-05T19:18:27.830Z,85.80
2019-02-05T19:21:00.682Z,84.80
2019-02-05T19:23:29.178Z,85.00
2019-02-05T19:25:59.468Z,85.20
2019-02-05T19:28:29.557Z,84.00
2019-02-05T19:30:59.814Z,83.40
2019-02-05T19:33:28.338Z,82.90
2019-02-05T19:35:56.745Z,83.20
2019-02-05T19:38:25.256Z,82.90
2019-02-05T19:40:57.655Z,83.70
2019-02-05T19:43:23.878Z,83.70
2019-02-05T19:45:54.065Z,83.80
2019-02-05T19:48:26.756Z,84.70
2019-02-05T19:50:55.730Z,84.80
2019-02-05T19:53:26.052Z,85.30
2019-02-05T19:55:54.254Z,85.90
2019-02-05T19:58:23.083Z,85.20
2019-02-05T20:01:02.364Z,85.20
2019-02-05T20:03:38.445Z,85.00
2019-02-05T20:08:37.257Z,84.70
2019-02-05T20:11:05.812Z,85.00
2019-02-05T20:13:42.449Z,85.20
2019-02-05T20:16:10.761Z,85.40
2019-02-05T20:18:42.311Z,86.00
2019-02-05T20:21:10.992Z,86.00
2019-02-05T20:23:41.510Z,86.80
2019-02-05T20:26:15.800Z,85.60
2019-02-05T20:28:43.751Z,85.80
2019-02-05T20:31:12.438Z,85.80
2019-02-05T20:33:49.627Z,85.70
2019-02-05T20:36:11.068Z,85.80
2019-02-05T20:38:39.937Z,86.60
2019-02-05T20:41:08.731Z,87.40
2019-02-05T20:43:37.607Z,87.20
2019-02-05T20:46:09.380Z,87.30
2019-02-05T20:48:38.217Z,87.80
2019-02-05T20:51:08.059Z,87.70
2019-02-05T20:53:39.590Z,87.40
2019-02-05T20:56:08.336Z,87.30
2019-02-05T20:58:37.100Z,87.80
2019-02-05T21:01:06.101Z,87.70
2019-02-05T21:03:34.878Z,88.00
2019-02-05T21:06:03.496Z,88.20
2019-02-05T21:08:32.255Z,87.60
2019-02-05T21:11:00.897Z,87.30
2019-02-05T21:13:29.432Z,87.50
2019-02-05T21:15:58.128Z,87.40
2019-02-05T21:18:26.762Z,87.70
2019-02-05T21:20:55.306Z,87.80
2019-02-05T21:23:23.876Z,87.70
2019-02-05T21:25:52.418Z,87.60
2019-02-05T21:28:29.488Z,87.10
2019-02-05T21:31:02.958Z,86.70
2019-02-05T21:33:32.806Z,86.90
2019-02-05T21:36:01.632Z,86.70
2019-02-05T21:38:34.557Z,87.00
2019-02-05T21:41:03.228Z,86.60
2019-02-05T21:43:33.812Z,86.20
2019-02-05T21:46:04.972Z,85.80
2019-02-05T21:48:38.355Z,85.90
2019-02-05T21:51:07.082Z,85.70
2019-02-05T21:53:44.858Z,85.90
2019-02-05T21:56:10.566Z,87.30
2019-02-05T21:58:39.178Z,86.70
2019-02-05T22:01:16.102Z,87.00
2019-02-05T22:03:40.728Z,86.40
2019-02-05T22:06:09.535Z,86.70
2019-02-05T22:08:38.324Z,86.80
2019-02-05T22:11:07.024Z,86.70
2019-02-05T22:13:35.699Z,86.50
2019-02-05T22:16:04.274Z,86.30
2019-02-05T22:18:34.418Z,86.30
2019-02-05T22:21:04.053Z,85.90
2019-02-05T22:23:33.350Z,86.00
2019-02-05T22:26:01.867Z,86.70
2019-02-05T22:28:30.735Z,87.10
2019-02-05T22:30:59.690Z,87.10
2019-02-05T22:33:28.325Z,86.90
2019-02-05T22:35:57.106Z,86.20
2019-02-05T22:38:25.572Z,86.10
2019-02-05T22:40:54.094Z,85.50
2019-02-05T22:43:22.754Z,85.20
2019-02-05T22:45:51.427Z,85.50
2019-02-05T22:48:20.064Z,85.90
2019-02-05T22:50:48.707Z,85.60
2019-02-05T22:53:17.236Z,85.00
2019-02-05T22:55:45.701Z,85.40
2019-02-05T22:58:14.358Z,85.40
2019-02-05T23:00:58.648Z,85.10
2019-02-05T23:03:39.332Z,85.00
2019-02-05T23:06:17.490Z,85.10
2019-02-05T23:08:45.986Z,84.60
2019-02-05T23:11:23.895Z,85.20
2019-02-05T23:13:52.386Z,85.50
2019-02-05T23:16:20.908Z,85.30
2019-02-05T23:18:49.495Z,85.10
2019-02-05T23:21:17.954Z,84.70
2019-02-05T23:23:46.431Z,85.50
2019-02-05T23:26:16.149Z,85.50
2019-02-05T23:28:44.671Z,85.10
2019-02-05T23:31:13.142Z,85.20
2019-02-05T23:33:44.432Z,85.60
2019-02-05T23:36:11.688Z,85.70
2019-02-05T23:38:42.140Z,86.10
2019-02-05T23:41:10.162Z,86.10
2019-02-05T23:43:38.693Z,85.40
2019-02-05T23:46:07.305Z,86.20
2019-02-05T23:48:37.009Z,85.80
2019-02-05T23:51:05.537Z,86.50
2019-02-05T23:53:33.991Z,86.40
2019-02-05T23:56:02.442Z,87.00
2019-02-05T23:58:31.472Z,87.50
